createdAt,value
2019-02-06T00:01:19.523Z,33.35
2019-02-06T00:06:23.904Z,37.70
2019-02-06T00:11:28.568Z,34.47
2019-02-06T00:16:32.940Z,33.43
2019-02-06T00:21:37.356Z,36.60
2019-02-06T00:26:41.723Z,35.90
2019-02-06T00:31:46.127Z,33.33
2019-02-06T00:36:50.983Z,35.50
2019-02-06T00:41:55.388Z,32.50
2019-02-06T00:46:59.773Z,34.20
2019-02-06T00:52:04.143Z,36.30
2019-02-06T00:57:08.543Z,36.70
2019-02-06T01:02:13.131Z,35.63
2019-02-06T01:07:17.602Z,36.57
2019-02-06T01:12:22.959Z,35.63
2019-02-06T01:17:27.322Z,35.27
2019-02-06T01:22:34.074Z,37.73
2019-02-06T01:27:38.541Z,38.03
2019-02-06T01:32:42.935Z,35.47
2019-02-06T01:37:47.329Z,33.53
2019-02-06T01:42:51.716Z,36.00
2019-02-06T01:47:56.074Z,37.80
2019-02-06T01:53:00.499Z,38.17
2019-02-06T01:58:05.170Z,38.17
2019-02-06T02:03:09.816Z,44.50
2019-02-06T02:08:14.144Z,39.37
2019-02-06T02:13:18.499Z,41.37
2019-02-06T02:18:22.913Z,36.77
2019-02-06T02:23:27.454Z,35.87
2019-02-06T02:28:32.234Z,37.63
2019-02-06T02:33:36.599Z,34.07
2019-02-06T02:38:41.042Z,33.93
2019-02-06T02:43:45.696Z,36.00
2019-02-06T02:48:50.094Z,38.57
2019-02-06T02:53:54.440Z,37.60
2019-02-06T02:58:58.875Z,37.77
2019-02-06T03:04:04.904Z,36.00
2019-02-06T03:09:11.197Z,35.97
2019-02-06T03:14:15.727Z,35.60
2019-02-06T03:19:20.184Z,38.90
2019-02-06T03:24:24.560Z,38.70
2019-02-06T03:29:29.199Z,35.37
2019-02-06T03:34:34.046Z,37.63
2019-02-06T03:39:38.540Z,35.40
2019-02-06T03:44:43.521Z,36.70
2019-02-06T03:49:47.952Z,36.50
2019-02-06T03:54:52.422Z,37.37
2019-02-06T03:59:56.749Z,36.03
2019-02-06T04:05:01.131Z,36.50
2019-02-06T04:10:11.942Z,33.60
2019-02-06T04:15:16.352Z,34.90
2019-02-06T04:20:20.708Z,37.90
2019-02-06T04:25:25.055Z,36.07
2019-02-06T04:30:29.816Z,36.33
2019-02-06T04:35:34.265Z,34.17
2019-02-06T04:40:38.708Z,31.23
2019-02-06T04:45:43.117Z,31.70
2019-02-06T04:50:47.492Z,35.20
2019-02-06T04:55:51.897Z,33.20
2019-02-06T05:00:56.261Z,35.10
2019-02-06T05:06:00.695Z,34.30
2019-02-06T05:11:05.106Z,31.73
2019-02-06T05:16:09.485Z,30.57
2019-02-06T05:21:13.835Z,31.70
2019-02-06T05:26:18.381Z,31.82
2019-02-06T05:31:23.117Z,29.00
2019-02-06T05:36:27.475Z,28.90
2019-02-06T05:41:31.874Z,27.83
2019-02-06T05:46:36.208Z,27.77
2019-02-06T05:51:40.608Z,23.93
2019-02-06T05:56:44.979Z,26.60
2019-02-06T06:01:49.333Z,23.03
2019-02-06T06:06:53.923Z,26.23
2019-02-06T06:11:58.304Z,27.10
2019-02-06T06:17:02.811Z,24.63
2019-02-06T06:22:07.278Z,24.67
2019-02-06T06:27:11.732Z,24.63
2019-02-06T06:32:16.150Z,25.50
2019-02-06T06:37:21.287Z,25.43
2019-02-06T06:42:25.665Z,27.30
2019-02-06T06:47:30.058Z,26.13
2019-02-06T06:52:34.512Z,25.03
2019-02-06T06:57:39.011Z,25.50
2019-02-06T07:02:43.386Z,24.40
2019-02-06T07:07:47.807Z,27.00
2019-02-06T07:12:52.506Z,27.67
2019-02-06T07:17:56.887Z,26.33
2019-02-06T07:23:01.379Z,26.23
2019-02-06T07:28:05.774Z,25.77
2019-02-06T07:33:10.166Z,23.90
2019-02-06T07:38:23.861Z,24.40
2019-02-06T07:43:20.951Z,28.37
2019-02-06T07:48:25.379Z,21.97
2019-02-06T07:53:29.717Z,23.93
2019-02-06T07:58:34.063Z,22.53
2019-02-06T08:03:38.682Z,25.90
2019-02-06T08:08:43.055Z,22.60
2019-02-06T08:13:47.521Z,22.40
2019-02-06T08:18:51.885Z,20.40
2019-02-06T08:23:56.294Z,23.70
2019-02-06T08:29:00.686Z,24.03
2019-02-06T08:34:05.338Z,24.07
2019-02-06T08:39:09.766Z,20.73
2019-02-06T08:44:14.163Z,27.00
2019-02-06T08:49:18.535Z,25.23
2019-02-06T08:54:22.934Z,25.70
2019-02-06T08:59:27.334Z,29.40
2019-02-06T09:04:32.166Z,26.77
2019-02-06T09:09:36.552Z,28.83
2019-02-06T09:14:40.908Z,31.00
2019-02-06T09:19:45.292Z,31.07
2019-02-06T09:24:49.711Z,27.57
2019-02-06T09:29:54.540Z,32.80
2019-02-06T09:34:58.917Z,31.60
2019-02-06T09:40:09.345Z,33.47
2019-02-06T09:45:15.442Z,30.37
2019-02-06T09:50:28.241Z,30.45
2019-02-06T09:55:32.581Z,28.07
2019-02-06T10:00:38.341Z,29.33
2019-02-06T10:05:42.780Z,28.53
2019-02-06T10:10:47.271Z,31.33
2019-02-06T10:15:51.657Z,28.37
2019-02-06T10:20:56.107Z,25.10
2019-02-06T10:26:00.541Z,16.83
2019-02-06T10:31:04.992Z,16.70
2019-02-06T10:36:09.388Z,14.87
2019-02-06T10:41:13.835Z,11.60
2019-02-06T10:46:18.524Z,11.80
2019-02-06T10:51:22.902Z,12.23
2019-02-06T10:56:27.255Z,13.20
2019-02-06T11:01:31.878Z,12.77
2019-02-06T11:06:36.488Z,11.93
2019-02-06T11:11:41.003Z,14.33
2019-02-06T11:16:45.355Z,11.37
2019-02-06T11:21:49.726Z,12.77
2019-02-06T11:26:54.077Z,13.00
2019-02-06T11:31:58.796Z,13.20
2019-02-06T11:37:03.156Z,15.37
2019-02-06T11:42:08.785Z,12.27
2019-02-06T11:47:13.154Z,12.57
2019-02-06T11:52:17.537Z,13.20
2019-02-06T11:57:24.090Z,13.27
2019-02-06T12:02:37.067Z,14.13
2019-02-06T12:07:34.227Z,13.57
2019-02-06T12:12:38.626Z,13.73
2019-02-06T12:17:43.056Z,14.43
2019-02-06T12:22:47.435Z,14.83
2019-02-06T12:27:54.378Z,13.57
2019-02-06T12:32:59.277Z,13.10
2019-02-06T12:38:03.751Z,12.03
2019-02-06T12:43:10.520Z,13.83
2019-02-06T12:48:14.465Z,17.43
2019-02-06T12:53:18.850Z,16.13
2019-02-06T12:58:26.084Z,16.70
2019-02-06T13:03:29.343Z,16.33
2019-02-06T13:08:33.723Z,17.97
2019-02-06T13:13:38.155Z,16.47
2019-02-06T13:18:42.493Z,15.70
2019-02-06T13:23:49.487Z,16.80
2019-02-06T13:28:52.962Z,16.23
2019-02-06T13:33:57.316Z,16.87
2019-02-06T13:39:01.688Z,19.27
2019-02-06T13:44:07.738Z,18.10
2019-02-06T13:49:12.472Z,18.20
2019-02-06T13:54:16.996Z,17.57
2019-02-06T13:59:21.398Z,19.90
2019-02-06T14:04:25.776Z,19.93
2019-02-06T14:09:30.201Z,21.67
2019-02-06T14:14:34.554Z,17.23
2019-02-06T14:19:38.953Z,18.17
2019-02-06T14:24:45.159Z,18.40
2019-02-06T14:30:01.617Z,19.37
2019-02-06T14:35:30.467Z,19.57
2019-02-06T14:40:43.517Z,16.63
2019-02-06T14:45:53.940Z,14.97
2019-02-06T14:51:32.981Z,16.77
2019-02-06T14:56:49.377Z,16.83
2019-02-06T15:02:02.884Z,15.03
2019-02-06T15:07:28.330Z,15.97
2019-02-06T15:12:41.533Z,13.77
2019-02-06T15:18:14.872Z,13.80
2019-02-06T15:23:33.164Z,13.97
2019-02-06T15:28:49.666Z,12.53
2019-02-06T15:34:18.290Z,12.93
2019-02-06T15:39:37.452Z,14.40
2019-02-06T15:45:00.220Z,12.00
2019-02-06T15:50:26.739Z,13.53
2019-02-06T15:55:46.779Z,12.50
2019-02-06T16:00:57.034Z,14.53
2019-02-06T16:06:24.483Z,11.37
2019-02-06T16:11:41.924Z,12.30
2019-02-06T16:17:12.768Z,13.87
2019-02-06T16:22:39.652Z,13.30
2019-02-06T16:28:07.700Z,12.20
2019-02-06T16:33:31.699Z,12.10
2019-02-06T16:38:44.948Z,11.20
2019-02-06T16:44:11.844Z,10.70
2019-02-06T16:49:19.464Z,12.20
2019-02-06T16:54:32.814Z,12.90
2019-02-06T16:59:45.933Z,12.00
2019-02-06T17:05:08.834Z,11.77
2019-02-06T17:10:21.874Z,12.43
2019-02-06T17:15:38.343Z,10.90
2019-02-06T17:21:05.580Z,13.03
2019-02-06T17:26:22.242Z,11.83
2019-02-06T17:31:32.562Z,10.70
2019-02-06T17:36:49.370Z,11.70
2019-02-06T17:42:15.904Z,11.27
2019-02-06T17:47:41.932Z,14.50
2019-02-06T17:53:05.632Z,12.13
2019-02-06T17:58:10.090Z,12.07
2019-02-06T18:03:17.087Z,12.33
2019-02-06T18:08:21.917Z,10.50
2019-02-06T18:13:26.265Z,11.60
2019-02-06T18:18:30.614Z,13.27
2019-02-06T18:23:34.959Z,9.43
2019-02-06T18:28:39.695Z,11.50
2019-02-06T18:33:44.743Z,9.90
2019-02-06T18:38:51.023Z,10.30
2019-02-06T18:43:55.551Z,12.23
2019-02-06T18:49:00.011Z,12.30
2019-02-06T18:54:06.109Z,13.10
2019-02-06T18:59:10.554Z,12.40
2019-02-06T19:04:14.999Z,14.00
2019-02-06T19:09:19.533Z,11.57
2019-02-06T19:14:23.909Z,12.43
2019-02-06T19:19:28.269Z,12.47
2019-02-06T19:24:32.796Z,16.93
2019-02-06T19:29:37.260Z,13.30
2019-02-06T19:34:41.811Z,14.47
2019-02-06T19:39:46.176Z,13.50
2019-02-06T19:44:50.629Z,13.70
2019-02-06T19:49:55.265Z,14.10
2019-02-06T19:54:59.771Z,14.40
2019-02-06T20:00:10.402Z,13.57
2019-02-06T20:05:16.966Z,15.47
2019-02-06T20:10:32.994Z,14.50
2019-02-06T20:15:38.442Z,15.30
2019-02-06T20:20:42.822Z,15.93
2019-02-06T20:25:47.254Z,13.60
2019-02-06T20:30:51.659Z,15.90
2019-02-06T20:35:57.816Z,15.10
2019-02-06T20:41:02.198Z,14.03
2019-02-06T20:46:06.571Z,14.47
2019-02-06T20:51:11.150Z,15.43
2019-02-06T20:56:15.503Z,15.17
2019-02-06T21:01:19.871Z,16.60
2019-02-06T21:06:24.294Z,16.23
2019-02-06T21:11:28.678Z,15.60
2019-02-06T21:16:33.100Z,16.53
2019-02-06T21:21:37.511Z,15.77
2019-02-06T21:26:44.429Z,17.85
2019-02-06T21:31:48.309Z,17.77
2019-02-06T21:36:53.235Z,16.70
2019-02-06T21:41:57.591Z,15.23
2019-02-06T21:47:01.979Z,16.73
2019-02-06T21:52:06.783Z,17.23
2019-02-06T21:57:11.246Z,17.70
2019-02-06T22:02:15.625Z,15.60
2019-02-06T22:07:20.024Z,16.83
2019-02-06T22:12:24.397Z,18.47
2019-02-06T22:17:28.823Z,18.20
2019-02-06T22:22:33.179Z,16.63
2019-02-06T22:27:38.927Z,17.60
2019-02-06T22:32:43.325Z,19.03
2019-02-06T22:37:47.723Z,18.43
2019-02-06T22:42:52.369Z,16.83
2019-02-06T22:47:56.818Z,19.60
2019-02-06T22:53:02.848Z,18.50
2019-02-06T22:58:07.271Z,18.93
2019-02-06T23:03:11.794Z,19.53
2019-02-06T23:08:16.239Z,23.47
2019-02-06T23:13:20.655Z,19.27
2019-02-06T23:18:25.148Z,20.53
2019-02-06T23:23:29.582Z,19.87
2019-02-06T23:28:33.973Z,19.43
2019-02-06T23:33:38.328Z,22.77
2019-02-06T23:38:42.742Z,19.67
2019-02-06T23:43:47.142Z,23.13
2019-02-06T23:48:51.491Z,20.83
2019-02-06T23:53:55.897Z,20.43
2019-02-06T23:59:00.315Z,19.13
